createdAt,value
2023-05-08T00:01:31.328Z,4.23
2023-05-08T00:03:58.702Z,4.63
2023-05-08T00:06:27.731Z,4.07
2023-05-08T00:08:57.905Z,4.77
2023-05-08T00:11:25.048Z,4.20
2023-05-08T00:13:52.153Z,4.90
2023-05-08T00:16:19.326Z,4.53
2023-05-08T00:18:46.947Z,4.13
2023-05-08T00:21:13.996Z,4.60
2023-05-08T00:23:41.503Z,4.43
2023-05-08T00:26:08.555Z,3.87
2023-05-08T00:28:35.524Z,4.70
2023-05-08T00:31:02.649Z,6.33
2023-05-08T00:33:29.738Z,5.33
2023-05-08T00:36:04.845Z,5.93
2023-05-08T00:38:34.103Z,5.87
2023-05-08T00:41:01.839Z,5.80
2023-05-08T00:43:29.846Z,6.23
2023-05-08T00:46:01.083Z,6.07
2023-05-08T00:48:34.940Z,6.40
2023-05-08T00:51:04.984Z,6.17
2023-05-08T00:53:36.505Z,5.77
2023-05-08T00:56:04.773Z,5.93
2023-05-08T00:58:33.084Z,4.97
2023-05-08T01:01:00.911Z,5.73
2023-05-08T01:03:29.071Z,6.30
2023-05-08T01:05:56.656Z,6.23
2023-05-08T01:08:23.907Z,5.83
2023-05-08T01:11:32.940Z,6.43
2023-05-08T01:14:31.680Z,7.40
2023-05-08T01:17:39.157Z,8.50
2023-05-08T01:20:15.429Z,7.87
2023-05-08T01:23:10.544Z,7.43
2023-05-08T01:26:23.880Z,6.93
2023-05-08T01:29:17.817Z,6.57
2023-05-08T01:32:02.749Z,8.23
2023-05-08T01:34:35.525Z,6.63
2023-05-08T01:37:08.780Z,7.60
2023-05-08T01:40:05.041Z,7.70
2023-05-08T01:42:51.874Z,7.57
2023-05-08T01:45:31.105Z,7.20
2023-05-08T01:48:10.856Z,7.20
2023-05-08T01:50:48.827Z,7.57
2023-05-08T01:53:39.031Z,7.53
2023-05-08T01:56:13.538Z,7.43
2023-05-08T01:58:42.718Z,6.80
2023-05-08T02:01:13.835Z,7.83
2023-05-08T02:03:43.378Z,7.33
2023-05-08T02:06:16.860Z,7.47
2023-05-08T02:08:45.693Z,7.43
2023-05-08T02:11:14.458Z,7.47
2023-05-08T02:13:43.489Z,7.60
2023-05-08T02:16:12.555Z,7.13
2023-05-08T02:18:43.682Z,7.50
2023-05-08T02:21:14.547Z,7.07
2023-05-08T02:23:43.430Z,7.47
2023-05-08T02:26:12.651Z,7.03
2023-05-08T02:28:41.353Z,7.90
2023-05-08T02:31:11.031Z,7.47
2023-05-08T02:33:42.349Z,8.00
2023-05-08T02:36:11.320Z,7.50
2023-05-08T02:38:41.339Z,8.20
2023-05-08T02:41:09.346Z,9.20
2023-05-08T02:43:36.721Z,8.57
2023-05-08T02:46:59.092Z,9.13
2023-05-08T02:49:37.094Z,8.83
2023-05-08T02:52:20.037Z,9.90
2023-05-08T02:55:23.200Z,10.40
2023-05-08T02:58:25.474Z,10.53
2023-05-08T03:01:26.093Z,10.07
2023-05-08T03:04:29.202Z,10.27
2023-05-08T03:06:58.405Z,10.47
2023-05-08T03:09:32.174Z,11.23
2023-05-08T03:12:09.787Z,10.67
2023-05-08T03:14:47.237Z,11.67
2023-05-08T03:17:17.781Z,11.80
2023-05-08T03:19:50.030Z,12.63
2023-05-08T03:22:21.145Z,12.40
2023-05-08T03:24:49.875Z,13.03
2023-05-08T03:27:17.831Z,12.57
2023-05-08T03:29:45.726Z,12.90
2023-05-08T03:32:14.964Z,13.57
2023-05-08T03:34:42.212Z,12.27
2023-05-08T03:37:09.437Z,14.33
2023-05-08T03:39:36.644Z,12.40
2023-05-08T03:42:03.842Z,13.97
2023-05-08T03:44:32.250Z,12.20
2023-05-08T03:47:00.408Z,11.90
2023-05-08T03:49:29.693Z,11.67
2023-05-08T03:51:57.108Z,11.00
2023-05-08T03:54:25.631Z,11.40
2023-05-08T03:56:54.455Z,11.80
2023-05-08T03:59:47.181Z,11.50
2023-05-08T04:02:42.463Z,11.73
2023-05-08T04:05:43.505Z,10.68
2023-05-08T04:08:19.793Z,10.88
2023-05-08T04:11:22.809Z,12.15
2023-05-08T04:14:00.697Z,10.68
2023-05-08T04:16:30.964Z,11.23
2023-05-08T04:19:03.422Z,10.55
2023-05-08T04:21:35.465Z,9.57
2023-05-08T04:24:04.511Z,9.30
2023-05-08T04:26:32.337Z,8.05
2023-05-08T04:28:59.787Z,8.27
2023-05-08T04:31:27.942Z,7.68
2023-05-08T04:33:55.241Z,8.05
2023-05-08T04:36:22.271Z,7.75
2023-05-08T04:38:49.327Z,7.93
2023-05-08T04:41:16.427Z,8.63
2023-05-08T04:43:43.628Z,8.43
2023-05-08T04:46:10.947Z,7.32
2023-05-08T04:48:38.048Z,7.90
2023-05-08T04:51:05.185Z,7.68
2023-05-08T04:53:32.542Z,7.05
2023-05-08T04:55:59.599Z,8.27
2023-05-08T04:58:26.780Z,7.68
2023-05-08T05:00:53.831Z,7.63
2023-05-08T05:03:20.978Z,7.88
2023-05-08T05:05:47.979Z,6.82
2023-05-08T05:08:15.032Z,7.47
2023-05-08T05:10:42.077Z,7.55
2023-05-08T05:13:09.128Z,6.47
2023-05-08T05:15:36.210Z,6.97
2023-05-08T05:18:03.241Z,7.15
2023-05-08T05:20:30.290Z,6.15
2023-05-08T05:22:57.771Z,5.10
2023-05-08T05:25:24.770Z,5.57
2023-05-08T05:27:51.873Z,5.25
2023-05-08T05:30:19.056Z,4.20
2023-05-08T05:32:46.108Z,5.03
2023-05-08T05:35:13.326Z,4.45
2023-05-08T05:37:40.603Z,4.80
2023-05-08T05:40:08.485Z,4.45
2023-05-08T05:42:35.533Z,4.18
2023-05-08T05:45:02.527Z,4.22
2023-05-08T05:47:29.692Z,4.57
2023-05-08T05:49:58.913Z,4.28
2023-05-08T05:52:25.989Z,4.60
2023-05-08T05:54:53.047Z,4.00
2023-05-08T05:57:20.049Z,4.30
2023-05-08T05:59:47.065Z,3.80
2023-05-08T06:02:18.679Z,4.32
2023-05-08T06:04:46.224Z,3.67
2023-05-08T06:07:13.317Z,3.75
2023-05-08T06:09:40.450Z,3.95
2023-05-08T06:12:08.396Z,3.42
2023-05-08T06:14:35.451Z,4.30
2023-05-08T06:17:02.498Z,3.13
2023-05-08T06:19:29.593Z,3.40
2023-05-08T06:21:56.728Z,3.60
2023-05-08T06:24:23.767Z,3.53
2023-05-08T06:26:50.813Z,3.30
2023-05-08T06:29:17.783Z,3.60
2023-05-08T06:31:44.849Z,3.13
2023-05-08T06:34:11.815Z,3.30
2023-05-08T06:36:38.892Z,3.63
2023-05-08T06:39:06.316Z,3.63
2023-05-08T06:41:33.546Z,2.90
2023-05-08T06:44:00.607Z,3.13
2023-05-08T06:46:27.722Z,2.85
2023-05-08T06:48:54.773Z,3.60
2023-05-08T06:51:23.289Z,3.45
2023-05-08T06:53:50.352Z,3.50
2023-05-08T06:56:17.387Z,3.60
2023-05-08T06:58:48.326Z,3.22
2023-05-08T07:01:24.196Z,3.25
2023-05-08T07:03:51.390Z,3.28
2023-05-08T07:06:18.478Z,3.33
2023-05-08T07:08:45.500Z,3.63
2023-05-08T07:11:12.546Z,2.80
2023-05-08T07:13:39.514Z,2.92
2023-05-08T07:16:11.010Z,2.88
2023-05-08T07:18:38.332Z,2.58
2023-05-08T07:21:05.357Z,5.05
2023-05-08T07:23:32.403Z,3.85
2023-05-08T07:25:59.896Z,3.20
2023-05-08T07:28:26.952Z,2.60
2023-05-08T07:30:54.013Z,2.45
2023-05-08T07:33:21.548Z,3.47
2023-05-08T07:35:48.725Z,2.80
2023-05-08T07:38:15.850Z,2.42
2023-05-08T07:40:42.839Z,2.97
2023-05-08T07:43:09.922Z,2.92
2023-05-08T07:45:36.955Z,2.20
2023-05-08T07:48:04.542Z,3.20
2023-05-08T07:50:31.564Z,2.60
2023-05-08T07:52:58.566Z,4.20
2023-05-08T07:55:25.609Z,2.47
2023-05-08T07:57:52.588Z,4.38
2023-05-08T08:00:19.831Z,3.50
2023-05-08T08:02:46.963Z,2.25
2023-05-08T08:05:14.324Z,2.90
2023-05-08T08:07:41.550Z,4.82
2023-05-08T08:10:09.148Z,3.08
2023-05-08T08:12:36.547Z,2.40
2023-05-08T08:15:03.997Z,2.30
2023-05-08T08:17:31.093Z,2.30
2023-05-08T08:19:58.338Z,2.15
2023-05-08T08:22:26.578Z,1.90
2023-05-08T08:24:56.022Z,2.30
2023-05-08T08:27:23.670Z,2.65
2023-05-08T08:29:52.641Z,2.17
2023-05-08T08:32:25.922Z,2.50
2023-05-08T08:34:53.000Z,2.25
2023-05-08T08:37:19.989Z,2.63
2023-05-08T08:39:48.358Z,2.38
2023-05-08T08:42:15.654Z,2.88
2023-05-08T08:44:43.026Z,2.20
2023-05-08T08:47:14.441Z,1.52
2023-05-08T08:49:49.396Z,2.20
2023-05-08T08:52:46.554Z,1.95
2023-05-08T08:55:18.335Z,2.05
2023-05-08T08:58:13.235Z,2.72
2023-05-08T09:00:41.415Z,2.13
2023-05-08T09:03:08.639Z,2.00
2023-05-08T09:05:36.963Z,2.03
2023-05-08T09:08:04.213Z,2.50
2023-05-08T09:10:31.197Z,2.00
2023-05-08T09:12:58.298Z,1.85
2023-05-08T09:15:25.312Z,2.38
2023-05-08T09:17:52.389Z,2.00
2023-05-08T09:20:19.642Z,2.83
2023-05-08T09:22:47.138Z,1.70
2023-05-08T09:25:14.473Z,2.10
2023-05-08T09:27:41.701Z,2.50
2023-05-08T09:30:11.349Z,2.80
2023-05-08T09:32:41.140Z,2.00
2023-05-08T09:35:10.422Z,2.42
2023-05-08T09:37:46.461Z,1.83
2023-05-08T09:40:22.343Z,2.33
2023-05-08T09:42:50.925Z,2.17
2023-05-08T09:45:31.448Z,2.40
2023-05-08T09:47:59.427Z,2.55
2023-05-08T09:50:27.737Z,2.28
2023-05-08T09:52:55.033Z,2.53
2023-05-08T09:55:22.134Z,1.88
2023-05-08T09:58:00.090Z,2.50
2023-05-08T10:00:29.414Z,2.00
2023-05-08T10:02:57.940Z,2.10
2023-05-08T10:05:34.732Z,2.08
2023-05-08T10:08:25.801Z,1.92
2023-05-08T10:10:53.352Z,2.13
2023-05-08T10:13:21.337Z,2.25
2023-05-08T10:15:54.721Z,2.03
2023-05-08T10:18:26.054Z,2.45
2023-05-08T10:20:55.887Z,2.20
2023-05-08T10:23:23.218Z,2.22
2023-05-08T10:26:02.089Z,1.83
2023-05-08T10:28:51.014Z,2.40
2023-05-08T10:31:20.482Z,2.17
2023-05-08T10:33:51.318Z,1.70
2023-05-08T10:36:18.431Z,2.17
2023-05-08T10:38:45.783Z,2.15
2023-05-08T10:41:13.615Z,2.05
2023-05-08T10:43:43.187Z,2.42
2023-05-08T10:46:31.094Z,2.20
2023-05-08T10:49:23.496Z,1.60
2023-05-08T10:52:16.444Z,2.20
2023-05-08T10:55:19.421Z,1.63
2023-05-08T10:58:28.470Z,2.08
2023-05-08T11:01:01.023Z,2.28
2023-05-08T11:03:32.483Z,2.30
2023-05-08T11:06:01.844Z,1.90
2023-05-08T11:08:32.587Z,2.20
2023-05-08T11:10:59.700Z,2.38
2023-05-08T11:13:43.309Z,1.98
2023-05-08T11:16:11.278Z,1.55
2023-05-08T11:18:48.923Z,1.67
2023-05-08T11:21:24.095Z,1.90
2023-05-08T11:23:58.295Z,2.38
2023-05-08T11:26:40.639Z,2.00
2023-05-08T11:29:17.750Z,1.88
2023-05-08T11:31:52.012Z,2.17
2023-05-08T11:34:43.976Z,2.10
2023-05-08T11:37:24.144Z,2.40
2023-05-08T11:39:51.430Z,2.03
2023-05-08T11:42:27.523Z,2.15
2023-05-08T11:45:08.810Z,2.47
2023-05-08T11:47:44.937Z,2.38
2023-05-08T11:50:13.864Z,2.75
2023-05-08T11:52:43.045Z,2.35
2023-05-08T11:55:15.875Z,2.33
2023-05-08T11:57:42.809Z,2.00
2023-05-08T12:00:12.226Z,2.05
2023-05-08T12:02:41.666Z,2.00
2023-05-08T12:05:10.469Z,1.85
2023-05-08T12:07:47.287Z,1.90
2023-05-08T12:10:17.021Z,2.10
2023-05-08T12:12:45.341Z,2.30
2023-05-08T12:15:14.978Z,2.38
2023-05-08T12:17:43.205Z,2.22
2023-05-08T12:20:19.002Z,2.25
2023-05-08T12:22:53.495Z,2.00
2023-05-08T12:25:20.985Z,1.80
2023-05-08T12:27:48.211Z,2.17
2023-05-08T12:30:16.881Z,2.17
2023-05-08T12:32:44.646Z,1.90
2023-05-08T12:35:13.191Z,2.38
2023-05-08T12:37:40.649Z,2.60
2023-05-08T12:40:08.827Z,2.13
2023-05-08T12:42:48.205Z,2.42
2023-05-08T12:45:27.960Z,2.33
2023-05-08T12:48:04.277Z,2.10
2023-05-08T12:50:40.429Z,1.75
2023-05-08T12:53:13.680Z,2.40
2023-05-08T12:55:54.346Z,1.80
2023-05-08T12:58:26.301Z,1.90
2023-05-08T13:01:03.407Z,2.03
2023-05-08T13:03:31.435Z,2.10
2023-05-08T13:05:59.093Z,1.85
2023-05-08T13:08:38.147Z,2.60
2023-05-08T13:11:06.687Z,2.45
2023-05-08T13:13:36.596Z,2.33
2023-05-08T13:16:06.196Z,2.28
2023-05-08T13:18:36.146Z,1.88
2023-05-08T13:21:03.726Z,1.92
2023-05-08T13:23:30.906Z,1.80
2023-05-08T13:25:57.864Z,2.03
2023-05-08T13:28:24.890Z,1.98
2023-05-08T13:30:51.906Z,1.65
2023-05-08T13:33:19.139Z,1.80
2023-05-08T13:35:46.158Z,2.00
2023-05-08T13:38:13.190Z,2.00
2023-05-08T13:40:40.253Z,3.13
2023-05-08T13:43:07.192Z,1.92
2023-05-08T13:45:34.369Z,2.13
2023-05-08T13:48:01.520Z,2.22
2023-05-08T13:50:28.605Z,2.08
2023-05-08T13:52:55.617Z,1.77
2023-05-08T13:55:23.404Z,1.88
2023-05-08T13:57:50.914Z,2.40
2023-05-08T14:00:18.627Z,2.03
2023-05-08T14:02:46.084Z,2.10
2023-05-08T14:05:13.558Z,2.28
2023-05-08T14:07:40.824Z,2.30
2023-05-08T14:10:08.411Z,2.28
2023-05-08T14:12:36.383Z,2.30
2023-05-08T14:15:05.610Z,2.35
2023-05-08T14:17:32.792Z,1.75
2023-05-08T14:20:00.031Z,2.03
2023-05-08T14:22:27.130Z,2.95
2023-05-08T14:24:54.332Z,2.33
2023-05-08T14:27:21.526Z,2.20
2023-05-08T14:29:48.581Z,2.13
2023-05-08T14:32:15.887Z,1.73
2023-05-08T14:34:42.863Z,2.00
2023-05-08T14:37:09.968Z,2.10
2023-05-08T14:39:37.042Z,2.20
2023-05-08T14:44:34.069Z,1.95
2023-05-08T14:47:01.099Z,2.00
2023-05-08T14:51:57.938Z,1.92
2023-05-08T14:54:25.165Z,2.00
2023-05-08T14:56:52.176Z,2.65
2023-05-08T14:59:19.162Z,1.98
2023-05-08T15:01:46.251Z,2.03
2023-05-08T15:04:13.431Z,2.00
2023-05-08T15:06:41.420Z,2.10
2023-05-08T15:09:09.777Z,2.40
2023-05-08T15:11:37.647Z,2.20
2023-05-08T15:14:06.119Z,1.90
2023-05-08T15:16:33.301Z,2.20
2023-05-08T15:19:00.435Z,2.60
2023-05-08T15:21:28.530Z,2.00
2023-05-08T15:23:56.016Z,2.30
2023-05-08T15:26:23.490Z,2.08
2023-05-08T15:28:51.003Z,2.50
2023-05-08T15:31:18.453Z,2.38
2023-05-08T15:33:46.046Z,2.08
2023-05-08T15:36:13.915Z,2.20
2023-05-08T15:38:42.000Z,2.30
2023-05-08T15:41:15.227Z,2.30
2023-05-08T15:43:43.294Z,2.10
2023-05-08T15:46:10.496Z,2.40
2023-05-08T15:48:37.559Z,2.45
2023-05-08T15:51:04.560Z,2.00
2023-05-08T15:53:32.998Z,2.72
2023-05-08T15:56:00.047Z,2.17
2023-05-08T15:58:27.654Z,1.92
2023-05-08T16:00:54.830Z,2.58
2023-05-08T16:03:22.006Z,2.15
2023-05-08T16:05:49.572Z,2.10
2023-05-08T16:08:16.587Z,2.38
2023-05-08T16:10:43.655Z,2.38
2023-05-08T16:13:10.814Z,2.05
2023-05-08T16:15:37.959Z,2.42
2023-05-08T16:18:06.224Z,2.10
2023-05-08T16:20:35.598Z,2.78
2023-05-08T16:23:03.125Z,2.47
2023-05-08T16:25:30.135Z,2.10
2023-05-08T16:27:57.085Z,2.25
2023-05-08T16:30:24.260Z,2.13
2023-05-08T16:32:51.593Z,2.08
2023-05-08T16:35:19.703Z,1.90
2023-05-08T16:37:47.046Z,2.00
2023-05-08T16:40:14.657Z,2.50
2023-05-08T16:42:41.720Z,2.50
2023-05-08T16:45:09.427Z,2.28
2023-05-08T16:47:36.598Z,2.78
2023-05-08T16:50:05.151Z,2.35
2023-05-08T16:52:33.036Z,2.85
2023-05-08T16:55:00.521Z,2.22
2023-05-08T16:57:27.996Z,2.28
2023-05-08T16:59:55.078Z,2.47
2023-05-08T17:02:22.839Z,2.30
2023-05-08T17:04:50.492Z,2.55
2023-05-08T17:07:18.486Z,1.83
2023-05-08T17:09:48.399Z,2.22
2023-05-08T17:12:15.405Z,2.10
2023-05-08T17:14:42.740Z,2.78
2023-05-08T17:17:09.964Z,2.60
2023-05-08T17:19:37.147Z,2.78
2023-05-08T17:22:04.213Z,2.28
2023-05-08T17:24:32.402Z,2.58
2023-05-08T17:26:59.691Z,2.58
2023-05-08T17:29:26.969Z,2.63
2023-05-08T17:31:54.058Z,2.25
2023-05-08T17:34:22.707Z,2.30
2023-05-08T17:36:50.066Z,1.88
2023-05-08T17:39:19.954Z,2.10
2023-05-08T17:41:51.728Z,2.65
2023-05-08T17:44:18.983Z,2.15
2023-05-08T17:46:46.245Z,2.45
2023-05-08T17:49:15.091Z,2.38
2023-05-08T17:51:42.913Z,2.42
2023-05-08T17:54:09.973Z,2.38
2023-05-08T17:56:37.019Z,2.63
2023-05-08T17:59:04.017Z,2.60
2023-05-08T18:01:31.066Z,2.40
2023-05-08T18:03:58.062Z,2.60
2023-05-08T18:06:25.104Z,2.20
2023-05-08T18:08:52.101Z,2.75
2023-05-08T18:11:24.435Z,2.65
2023-05-08T18:13:54.059Z,3.25
2023-05-08T18:16:22.416Z,2.90
2023-05-08T18:18:50.097Z,2.50
2023-05-08T18:21:17.303Z,2.78
2023-05-08T18:23:44.343Z,2.55
2023-05-08T18:26:16.367Z,3.38
2023-05-08T18:28:44.598Z,3.65
2023-05-08T18:31:13.381Z,2.55
2023-05-08T18:33:40.588Z,3.20
2023-05-08T18:36:07.695Z,3.00
2023-05-08T18:38:35.598Z,2.72
2023-05-08T18:41:06.139Z,2.65
2023-05-08T18:43:33.692Z,3.03
2023-05-08T18:46:07.002Z,2.78
2023-05-08T18:48:34.079Z,3.10
2023-05-08T18:51:01.085Z,2.72
2023-05-08T18:53:28.106Z,7.18
2023-05-08T18:55:55.090Z,5.63
2023-05-08T18:58:22.528Z,4.65
2023-05-08T19:00:49.509Z,3.80
2023-05-08T19:03:18.302Z,3.53
2023-05-08T19:05:45.541Z,3.58
2023-05-08T19:08:13.255Z,3.58
2023-05-08T19:10:40.331Z,3.00
2023-05-08T19:13:07.356Z,3.22
2023-05-08T19:15:34.602Z,4.10
2023-05-08T19:18:04.997Z,3.85
2023-05-08T19:20:32.619Z,4.18
2023-05-08T19:22:59.619Z,3.45
2023-05-08T19:25:26.774Z,3.88
2023-05-08T19:27:53.777Z,3.55
2023-05-08T19:30:20.814Z,4.18
2023-05-08T19:32:47.803Z,3.85
2023-05-08T19:35:14.779Z,4.40
2023-05-08T19:37:41.978Z,3.38
2023-05-08T19:40:09.671Z,4.40
2023-05-08T19:42:36.711Z,3.65
2023-05-08T19:45:04.293Z,4.32
2023-05-08T19:47:31.294Z,3.65
2023-05-08T19:49:58.324Z,3.90
2023-05-08T19:52:25.307Z,3.75
2023-05-08T19:54:52.352Z,3.20
2023-05-08T19:57:19.319Z,4.55
2023-05-08T19:59:46.293Z,4.15
2023-05-08T20:02:13.336Z,4.32
2023-05-08T20:04:57.396Z,4.18
2023-05-08T20:07:27.284Z,3.63
2023-05-08T20:09:54.306Z,3.75
2023-05-08T20:12:21.361Z,4.60
2023-05-08T20:14:48.346Z,3.95
2023-05-08T20:17:15.547Z,4.35
2023-05-08T20:19:43.695Z,4.75
2023-05-08T20:22:11.110Z,4.63
2023-05-08T20:24:38.162Z,4.70
2023-05-08T20:27:05.210Z,5.18
2023-05-08T20:29:32.251Z,4.70
2023-05-08T20:31:59.783Z,5.50
2023-05-08T20:34:26.952Z,4.63
2023-05-08T20:36:53.918Z,5.15
2023-05-08T20:39:20.921Z,4.88
2023-05-08T20:41:47.936Z,4.97
2023-05-08T20:44:17.722Z,5.22
2023-05-08T20:46:45.224Z,5.10
2023-05-08T20:49:12.386Z,4.90
2023-05-08T20:51:39.338Z,5.15
2023-05-08T20:54:06.389Z,5.30
2023-05-08T20:56:35.813Z,4.78
2023-05-08T20:59:03.087Z,6.28
2023-05-08T21:01:30.257Z,6.15
2023-05-08T21:03:57.333Z,5.75
2023-05-08T21:06:24.350Z,5.88
2023-05-08T21:08:51.522Z,4.95
2023-05-08T21:11:18.550Z,4.77
2023-05-08T21:13:45.575Z,5.97
2023-05-08T21:16:12.563Z,5.32
2023-05-08T21:18:39.685Z,5.30
2023-05-08T21:21:18.109Z,5.35
2023-05-08T21:23:45.529Z,5.22
2023-05-08T21:26:12.701Z,5.40
2023-05-08T21:28:39.733Z,5.57
2023-05-08T21:31:06.910Z,5.93
2023-05-08T21:33:33.960Z,6.20
2023-05-08T21:36:01.120Z,6.33
2023-05-08T21:38:28.134Z,6.23
2023-05-08T21:40:55.746Z,6.13
2023-05-08T21:43:22.811Z,6.67
2023-05-08T21:45:49.802Z,5.43
2023-05-08T21:48:16.941Z,6.53
2023-05-08T21:50:44.032Z,6.50
2023-05-08T21:53:11.134Z,6.05
2023-05-08T21:55:38.157Z,5.63
2023-05-08T21:58:05.112Z,6.53
2023-05-08T22:00:32.058Z,5.57
2023-05-08T22:02:59.220Z,5.10
2023-05-08T22:05:26.270Z,6.30
2023-05-08T22:07:53.978Z,5.10
2023-05-08T22:10:22.042Z,5.68
2023-05-08T22:12:49.217Z,6.37
2023-05-08T22:15:28.357Z,5.20
2023-05-08T22:17:56.798Z,6.40
2023-05-08T22:20:24.097Z,5.50
2023-05-08T22:22:51.184Z,4.67
2023-05-08T22:25:18.264Z,4.53
2023-05-08T22:27:45.444Z,5.40
2023-05-08T22:30:12.654Z,5.80
2023-05-08T22:32:39.749Z,5.27
2023-05-08T22:35:07.078Z,5.30
2023-05-08T22:37:34.090Z,5.63
2023-05-08T22:40:01.084Z,6.53
2023-05-08T22:42:28.519Z,6.10
2023-05-08T22:44:56.288Z,5.03
2023-05-08T22:47:23.350Z,5.53
2023-05-08T22:49:50.667Z,6.00
2023-05-08T22:52:18.099Z,5.17
2023-05-08T22:54:45.047Z,5.70
2023-05-08T22:57:12.113Z,6.40
2023-05-08T22:59:39.089Z,6.00
2023-05-08T23:02:06.152Z,5.50
2023-05-08T23:04:33.196Z,6.20
2023-05-08T23:07:00.180Z,5.40
2023-05-08T23:09:27.236Z,5.57
2023-05-08T23:11:54.217Z,5.37
2023-05-08T23:14:21.236Z,5.70
2023-05-08T23:16:48.284Z,5.90
2023-05-08T23:19:15.722Z,6.40
2023-05-08T23:21:42.722Z,5.43
2023-05-08T23:24:09.813Z,5.70
2023-05-08T23:26:36.844Z,6.10
2023-05-08T23:29:03.857Z,5.53
2023-05-08T23:31:30.918Z,6.57
2023-05-08T23:33:57.943Z,6.23
2023-05-08T23:36:24.999Z,5.47
2023-05-08T23:38:51.968Z,5.73
2023-05-08T23:41:18.923Z,6.33
2023-05-08T23:43:45.870Z,6.60
2023-05-08T23:46:13.764Z,7.10
2023-05-08T23:48:40.794Z,8.40
2023-05-08T23:51:07.769Z,8.13
2023-05-08T23:53:34.732Z,6.73
2023-05-08T23:56:01.886Z,8.40
2023-05-08T23:58:28.835Z,6.83
